createdAt,value
2022-09-10T00:01:59.370Z,2.20
2022-09-10T00:04:28.100Z,2.17
2022-09-10T00:06:55.601Z,2.55
2022-09-10T00:09:22.843Z,2.40
2022-09-10T00:11:49.617Z,2.42
2022-09-10T00:14:19.936Z,3.55
2022-09-10T00:16:46.930Z,2.53
2022-09-10T00:19:14.917Z,2.75
2022-09-10T00:21:41.917Z,2.42
2022-09-10T00:24:08.593Z,3.00
2022-09-10T00:26:39.423Z,2.20
2022-09-10T00:29:08.886Z,2.45
2022-09-10T00:31:36.102Z,2.20
2022-09-10T00:34:04.174Z,2.08
2022-09-10T00:36:35.831Z,2.50
2022-09-10T00:39:05.916Z,2.40
2022-09-10T00:41:34.003Z,2.20
2022-09-10T00:44:44.497Z,2.40
2022-09-10T00:47:27.054Z,2.13
2022-09-10T00:50:03.424Z,2.17
2022-09-10T00:52:30.221Z,2.13
2022-09-10T00:54:57.704Z,2.47
2022-09-10T00:57:27.214Z,1.88
2022-09-10T01:00:00.192Z,2.03
2022-09-10T01:02:27.017Z,1.95
2022-09-10T01:04:56.503Z,2.30
2022-09-10T01:07:25.597Z,2.00
2022-09-10T01:09:52.590Z,1.50
2022-09-10T01:12:35.979Z,1.70
2022-09-10T01:15:26.158Z,1.90
2022-09-10T01:18:14.580Z,1.80
2022-09-10T01:20:51.157Z,2.28
2022-09-10T01:23:27.024Z,1.90
2022-09-10T01:26:08.349Z,1.70
2022-09-10T01:28:54.068Z,1.70
2022-09-10T01:31:26.497Z,1.75
2022-09-10T01:34:02.262Z,2.05
2022-09-10T01:36:38.717Z,1.60
2022-09-10T01:39:05.413Z,1.23
2022-09-10T01:41:32.094Z,1.42
2022-09-10T01:43:58.912Z,1.75
2022-09-10T01:46:54.184Z,1.90
2022-09-10T01:49:42.165Z,2.05
2022-09-10T01:52:25.457Z,1.75
2022-09-10T01:55:30.007Z,2.10
2022-09-10T01:58:11.921Z,1.77
2022-09-10T02:00:43.030Z,2.00
2022-09-10T02:03:17.356Z,1.60
2022-09-10T02:05:46.760Z,1.70
2022-09-10T02:08:20.201Z,1.70
2022-09-10T02:10:54.212Z,1.83
2022-09-10T02:13:23.250Z,1.52
2022-09-10T02:15:52.276Z,1.60
2022-09-10T02:18:22.942Z,3.22
2022-09-10T02:20:52.124Z,1.58
2022-09-10T02:23:21.856Z,1.70
2022-09-10T02:25:49.424Z,1.60
2022-09-10T02:28:17.102Z,1.55
2022-09-10T02:30:44.348Z,1.60
2022-09-10T02:33:12.130Z,1.52
2022-09-10T02:35:39.066Z,1.30
2022-09-10T02:38:05.884Z,1.50
2022-09-10T02:40:32.559Z,1.25
2022-09-10T02:42:59.434Z,1.40
2022-09-10T02:45:26.903Z,1.30
2022-09-10T02:47:54.860Z,1.92
2022-09-10T02:50:21.653Z,1.42
2022-09-10T02:52:51.274Z,1.50
2022-09-10T02:55:18.810Z,1.27
2022-09-10T02:57:45.526Z,1.48
2022-09-10T03:00:12.522Z,1.50
2022-09-10T03:02:40.287Z,1.40
2022-09-10T03:05:07.283Z,1.55
2022-09-10T03:07:34.331Z,1.40
2022-09-10T03:10:01.207Z,1.45
2022-09-10T03:12:27.958Z,1.60
2022-09-10T03:14:54.768Z,1.40
2022-09-10T03:17:21.555Z,1.67
2022-09-10T03:19:48.312Z,1.60
2022-09-10T03:22:15.017Z,1.77
2022-09-10T03:24:41.999Z,2.17
2022-09-10T03:27:09.029Z,1.90
2022-09-10T03:29:36.274Z,1.75
2022-09-10T03:32:03.156Z,1.80
2022-09-10T03:34:29.888Z,2.03
2022-09-10T03:36:56.621Z,1.60
2022-09-10T03:39:23.568Z,2.10
2022-09-10T03:41:50.184Z,1.73
2022-09-10T03:44:17.101Z,2.20
2022-09-10T03:46:45.002Z,2.60
2022-09-10T03:49:11.875Z,2.00
2022-09-10T03:51:38.524Z,2.00
2022-09-10T03:54:06.049Z,2.10
2022-09-10T03:56:32.739Z,1.90
2022-09-10T03:59:00.300Z,1.98
2022-09-10T04:01:27.066Z,2.05
2022-09-10T04:03:57.098Z,2.20
2022-09-10T04:06:24.010Z,2.40
2022-09-10T04:08:52.707Z,2.30
2022-09-10T04:11:20.330Z,2.10
2022-09-10T04:13:48.522Z,2.15
2022-09-10T04:16:16.564Z,2.60
2022-09-10T04:18:43.280Z,2.00
2022-09-10T04:21:09.937Z,2.13
2022-09-10T04:23:36.688Z,1.98
2022-09-10T04:26:15.031Z,2.13
2022-09-10T04:28:41.917Z,2.30
2022-09-10T04:31:08.737Z,2.08
2022-09-10T04:33:35.576Z,2.00
2022-09-10T04:36:03.356Z,2.17
2022-09-10T04:38:30.777Z,2.65
2022-09-10T04:41:01.480Z,1.88
2022-09-10T04:43:28.944Z,2.00
2022-09-10T04:45:55.940Z,2.17
2022-09-10T04:48:23.379Z,2.10
2022-09-10T04:51:14.622Z,2.38
2022-09-10T04:53:37.777Z,2.00
2022-09-10T04:56:04.516Z,2.10
2022-09-10T04:58:34.249Z,1.95
2022-09-10T05:01:04.773Z,2.10
2022-09-10T05:03:31.535Z,2.25
2022-09-10T05:05:58.233Z,2.20
2022-09-10T05:08:24.866Z,1.63
2022-09-10T05:10:51.509Z,2.58
2022-09-10T05:13:18.330Z,2.33
2022-09-10T05:15:46.008Z,1.98
2022-09-10T05:18:12.874Z,2.05
2022-09-10T05:20:39.530Z,2.47
2022-09-10T05:23:06.354Z,1.95
2022-09-10T05:25:34.530Z,2.10
2022-09-10T05:28:01.565Z,2.30
2022-09-10T05:30:32.817Z,2.28
2022-09-10T05:33:00.749Z,2.25
2022-09-10T05:35:29.053Z,2.20
2022-09-10T05:38:00.943Z,2.40
2022-09-10T05:40:29.113Z,2.78
2022-09-10T05:42:56.118Z,2.58
2022-09-10T05:45:23.436Z,2.10
2022-09-10T05:47:51.411Z,1.83
2022-09-10T05:50:18.665Z,2.47
2022-09-10T05:52:46.738Z,2.50
2022-09-10T05:55:13.560Z,2.30
2022-09-10T05:57:40.458Z,2.10
2022-09-10T06:00:10.854Z,1.90
2022-09-10T06:02:37.794Z,2.28
2022-09-10T06:05:05.085Z,2.40
2022-09-10T06:07:32.080Z,2.33
2022-09-10T06:10:00.139Z,2.40
2022-09-10T06:12:26.902Z,3.00
2022-09-10T06:14:53.791Z,2.72
2022-09-10T06:17:20.663Z,2.88
2022-09-10T06:19:47.292Z,4.25
2022-09-10T06:22:14.524Z,2.90
2022-09-10T06:24:41.183Z,3.13
2022-09-10T06:27:09.636Z,3.20
2022-09-10T06:29:36.864Z,3.72
2022-09-10T06:32:04.136Z,2.70
2022-09-10T06:34:31.332Z,3.47
2022-09-10T06:36:58.408Z,3.15
2022-09-10T06:39:25.114Z,3.15
2022-09-10T06:41:53.214Z,2.90
2022-09-10T06:44:22.362Z,3.20
2022-09-10T06:49:36.459Z,2.97
2022-09-10T06:52:03.231Z,2.95
2022-09-10T06:54:29.870Z,2.78
2022-09-10T06:56:57.855Z,2.53
2022-09-10T06:59:24.572Z,2.60
2022-09-10T07:01:51.388Z,2.90
2022-09-10T07:04:18.225Z,2.40
2022-09-10T07:06:46.047Z,2.83
2022-09-10T07:09:12.794Z,2.30
2022-09-10T07:11:41.674Z,2.75
2022-09-10T07:14:12.978Z,1.85
2022-09-10T07:16:44.633Z,1.83
2022-09-10T07:19:15.119Z,1.95
2022-09-10T07:21:41.968Z,1.80
2022-09-10T07:24:12.234Z,1.65
2022-09-10T07:26:39.112Z,1.42
2022-09-10T07:29:07.812Z,1.35
2022-09-10T07:31:35.707Z,1.40
2022-09-10T07:34:03.281Z,1.50
2022-09-10T07:36:30.683Z,1.20
2022-09-10T07:38:58.886Z,1.33
2022-09-10T07:41:29.859Z,1.30
2022-09-10T07:43:57.167Z,1.50
2022-09-10T07:46:25.497Z,2.63
2022-09-10T07:48:57.924Z,1.20
2022-09-10T07:51:27.428Z,1.13
2022-09-10T07:53:55.824Z,1.52
2022-09-10T07:56:25.786Z,2.08
2022-09-10T07:58:54.054Z,1.90
2022-09-10T08:01:21.206Z,1.50
2022-09-10T08:03:48.038Z,1.50
2022-09-10T08:06:14.902Z,1.48
2022-09-10T08:08:42.899Z,1.40
2022-09-10T08:11:16.647Z,1.63
2022-09-10T08:13:51.732Z,1.73
2022-09-10T08:16:23.508Z,1.30
2022-09-10T08:18:53.262Z,1.50
2022-09-10T08:21:20.351Z,1.52
2022-09-10T08:23:54.086Z,1.45
2022-09-10T08:26:23.551Z,1.25
2022-09-10T08:28:51.196Z,1.58
2022-09-10T08:31:18.183Z,1.40
2022-09-10T08:33:53.561Z,1.40
2022-09-10T08:36:21.881Z,1.40
2022-09-10T08:38:50.366Z,1.77
2022-09-10T08:41:38.946Z,1.52
2022-09-10T08:44:08.033Z,1.67
2022-09-10T08:46:42.557Z,1.63
2022-09-10T08:49:13.791Z,1.53
2022-09-10T08:52:20.580Z,1.88
2022-09-10T08:54:57.705Z,1.38
2022-09-10T08:57:40.758Z,2.03
2022-09-10T09:00:12.824Z,5.75
2022-09-10T09:02:48.865Z,1.67
2022-09-10T09:05:19.989Z,1.33
2022-09-10T09:07:48.315Z,1.52
2022-09-10T09:10:26.680Z,1.30
2022-09-10T09:12:59.364Z,1.30
2022-09-10T09:15:29.055Z,1.30
2022-09-10T09:18:31.359Z,1.20
2022-09-10T09:21:04.970Z,1.30
2022-09-10T09:24:14.340Z,1.60
2022-09-10T09:26:44.855Z,1.80
2022-09-10T09:29:38.141Z,1.55
2022-09-10T09:32:06.597Z,1.80
2022-09-10T09:34:50.446Z,1.65
2022-09-10T09:37:26.858Z,2.10
2022-09-10T09:40:05.872Z,1.95
2022-09-10T09:42:48.923Z,1.60
2022-09-10T09:45:22.282Z,1.88
2022-09-10T09:47:54.346Z,2.15
2022-09-10T09:50:21.296Z,1.40
2022-09-10T09:52:50.050Z,1.88
2022-09-10T09:55:31.019Z,1.60
2022-09-10T09:58:22.553Z,2.00
2022-09-10T10:00:59.757Z,2.00
2022-09-10T10:03:29.038Z,1.65
2022-09-10T10:06:06.880Z,1.70
2022-09-10T10:08:39.916Z,2.20
2022-09-10T10:11:07.922Z,2.05
2022-09-10T10:13:45.686Z,2.53
2022-09-10T10:16:17.185Z,2.00
2022-09-10T10:18:45.383Z,1.77
2022-09-10T10:21:23.386Z,1.85
2022-09-10T10:23:50.216Z,2.00
2022-09-10T10:26:33.948Z,1.65
2022-09-10T10:29:20.634Z,1.73
2022-09-10T10:31:48.956Z,2.20
2022-09-10T10:34:45.243Z,1.80
2022-09-10T10:37:33.401Z,1.90
2022-09-10T10:40:10.001Z,1.75
2022-09-10T10:42:55.364Z,1.60
2022-09-10T10:45:49.234Z,1.70
2022-09-10T10:48:34.627Z,1.60
2022-09-10T10:51:18.212Z,1.73
2022-09-10T10:54:18.855Z,1.80
2022-09-10T10:56:45.910Z,2.38
2022-09-10T10:59:15.282Z,1.80
2022-09-10T11:01:48.530Z,1.80
2022-09-10T11:04:29.128Z,1.70
2022-09-10T11:07:09.392Z,2.10
2022-09-10T11:09:43.958Z,1.40
2022-09-10T11:12:19.904Z,2.03
2022-09-10T11:15:01.717Z,1.80
2022-09-10T11:18:07.581Z,1.85
2022-09-10T11:21:07.105Z,2.17
2022-09-10T11:23:34.039Z,2.10
2022-09-10T11:26:21.570Z,1.95
2022-09-10T11:29:23.456Z,1.70
2022-09-10T11:32:04.224Z,2.00
2022-09-10T11:34:53.964Z,1.73
2022-09-10T11:37:40.842Z,1.70
2022-09-10T11:40:17.922Z,1.70
2022-09-10T11:42:51.187Z,1.50
2022-09-10T11:45:27.279Z,1.50
2022-09-10T11:48:02.110Z,1.40
2022-09-10T11:50:57.555Z,1.60
2022-09-10T11:53:25.724Z,1.52
2022-09-10T11:56:19.810Z,1.50
2022-09-10T11:59:21.572Z,1.65
2022-09-10T12:02:02.758Z,1.60
2022-09-10T12:05:06.012Z,1.15
2022-09-10T12:07:54.201Z,1.70
2022-09-10T12:10:32.988Z,1.45
2022-09-10T12:12:59.840Z,1.75
2022-09-10T12:15:31.261Z,1.83
2022-09-10T12:18:06.287Z,1.30
2022-09-10T12:20:39.271Z,1.40
2022-09-10T12:23:06.559Z,1.33
2022-09-10T12:25:34.879Z,1.30
2022-09-10T12:28:07.730Z,1.40
2022-09-10T12:30:37.651Z,1.40
2022-09-10T12:33:13.246Z,1.30
2022-09-10T12:35:48.854Z,1.10
2022-09-10T12:38:53.009Z,1.10
2022-09-10T12:41:27.146Z,1.35
2022-09-10T12:43:58.463Z,1.60
2022-09-10T12:46:26.891Z,1.33
2022-09-10T12:48:56.580Z,2.13
2022-09-10T12:51:41.339Z,1.23
2022-09-10T12:57:12.706Z,1.00
2022-09-10T12:59:51.322Z,1.20
2022-09-10T13:02:29.201Z,1.08
2022-09-10T13:05:17.995Z,1.00
2022-09-10T13:07:49.135Z,1.50
2022-09-10T13:10:26.082Z,1.17
2022-09-10T13:12:56.584Z,1.10
2022-09-10T13:15:26.759Z,1.58
2022-09-10T13:17:54.363Z,1.20
2022-09-10T13:20:21.006Z,1.33
2022-09-10T13:23:03.885Z,1.00
2022-09-10T13:25:37.080Z,1.00
2022-09-10T13:28:30.242Z,1.75
2022-09-10T13:31:08.610Z,0.90
2022-09-10T13:33:51.163Z,1.20
2022-09-10T13:36:42.292Z,1.20
2022-09-10T13:39:23.681Z,1.20
2022-09-10T13:42:25.883Z,1.02
2022-09-10T13:45:26.636Z,0.80
2022-09-10T13:48:01.128Z,1.10
2022-09-10T13:50:39.716Z,1.30
2022-09-10T13:53:08.813Z,1.00
2022-09-10T13:55:36.997Z,0.90
2022-09-10T13:58:16.939Z,1.02
2022-09-10T14:00:53.850Z,1.05
2022-09-10T14:03:37.677Z,1.17
2022-09-10T14:06:07.625Z,1.10
2022-09-10T14:08:35.715Z,0.90
2022-09-10T14:11:07.292Z,0.85
2022-09-10T14:13:41.195Z,1.20
2022-09-10T14:16:12.224Z,1.00
2022-09-10T14:18:45.651Z,1.00
2022-09-10T14:21:14.015Z,0.80
2022-09-10T14:23:48.939Z,0.90
2022-09-10T14:26:17.510Z,1.00
2022-09-10T14:29:04.096Z,1.00
2022-09-10T14:31:36.839Z,0.93
2022-09-10T14:34:26.507Z,1.20
2022-09-10T14:36:53.274Z,1.10
2022-09-10T14:39:21.937Z,1.15
2022-09-10T14:41:49.543Z,1.20
2022-09-10T14:44:22.249Z,1.17
2022-09-10T14:46:57.501Z,1.30
2022-09-10T14:49:30.057Z,1.48
2022-09-10T14:51:58.432Z,1.20
2022-09-10T14:54:26.590Z,1.20
2022-09-10T14:56:55.458Z,1.15
2022-09-10T14:59:33.046Z,1.42
2022-09-10T15:02:01.055Z,0.90
2022-09-10T15:04:30.032Z,1.00
2022-09-10T15:06:58.825Z,1.05
2022-09-10T15:09:29.877Z,1.15
2022-09-10T15:12:05.399Z,0.80
2022-09-10T15:14:33.488Z,1.08
2022-09-10T15:17:00.533Z,1.08
2022-09-10T15:19:27.894Z,1.00
2022-09-10T15:21:54.641Z,1.30
2022-09-10T15:24:22.897Z,1.38
2022-09-10T15:26:50.407Z,1.35
2022-09-10T15:29:20.183Z,1.17
2022-09-10T15:31:47.019Z,1.38
2022-09-10T15:34:14.340Z,1.20
2022-09-10T15:36:41.798Z,1.17
2022-09-10T15:39:11.258Z,1.10
2022-09-10T15:41:42.498Z,1.17
2022-09-10T15:44:09.460Z,1.58
2022-09-10T15:46:39.738Z,1.40
2022-09-10T15:49:06.485Z,1.38
2022-09-10T15:51:33.234Z,1.40
2022-09-10T15:54:03.045Z,1.30
2022-09-10T15:56:31.664Z,1.63
2022-09-10T15:58:58.994Z,1.30
2022-09-10T16:01:28.082Z,1.40
2022-09-10T16:03:57.688Z,1.52
2022-09-10T16:06:30.559Z,1.45
2022-09-10T16:09:01.899Z,1.40
2022-09-10T16:11:31.118Z,1.42
2022-09-10T16:14:04.149Z,1.42
2022-09-10T16:16:33.156Z,1.30
2022-09-10T16:19:00.735Z,1.20
2022-09-10T16:21:32.522Z,1.20
2022-09-10T16:24:00.673Z,1.50
2022-09-10T16:26:33.535Z,1.20
2022-09-10T16:29:02.297Z,1.40
2022-09-10T16:31:37.390Z,1.40
2022-09-10T16:36:34.027Z,1.05
2022-09-10T16:39:05.119Z,1.50
2022-09-10T16:41:33.032Z,1.33
2022-09-10T16:44:00.468Z,1.65
2022-09-10T16:46:28.288Z,1.30
2022-09-10T16:48:56.466Z,1.15
2022-09-10T16:51:25.804Z,1.10
2022-09-10T16:54:02.628Z,1.20
2022-09-10T16:56:42.034Z,1.13
2022-09-10T16:59:15.471Z,1.13
2022-09-10T17:01:47.871Z,1.42
2022-09-10T17:04:19.796Z,1.38
2022-09-10T17:06:48.677Z,1.20
2022-09-10T17:09:15.531Z,1.20
2022-09-10T17:11:42.607Z,1.50
2022-09-10T17:14:09.282Z,1.35
2022-09-10T17:16:41.225Z,1.40
2022-09-10T17:19:14.208Z,1.42
2022-09-10T17:21:42.983Z,1.55
2022-09-10T17:24:12.014Z,1.40
2022-09-10T17:26:40.031Z,1.23
2022-09-10T17:29:12.752Z,1.50
2022-09-10T17:31:39.684Z,1.40
2022-09-10T17:34:07.195Z,1.60
2022-09-10T17:36:34.880Z,1.40
2022-09-10T17:39:01.528Z,1.60
2022-09-10T17:41:29.132Z,1.45
2022-09-10T17:43:57.695Z,1.92
2022-09-10T17:46:24.906Z,1.70
2022-09-10T17:48:53.468Z,1.70
2022-09-10T17:51:26.296Z,1.50
2022-09-10T17:53:58.191Z,1.80
2022-09-10T17:56:26.501Z,1.90
2022-09-10T17:59:04.305Z,1.70
2022-09-10T18:01:34.064Z,1.77
2022-09-10T18:04:00.876Z,1.80
2022-09-10T18:06:29.100Z,1.90
2022-09-10T18:09:00.424Z,2.05
2022-09-10T18:11:29.787Z,2.15
2022-09-10T18:13:58.629Z,1.80
2022-09-10T18:16:28.744Z,1.88
2022-09-10T18:18:59.340Z,1.80
2022-09-10T18:21:35.768Z,1.95
2022-09-10T18:24:09.153Z,2.22
2022-09-10T18:26:39.312Z,1.83
2022-09-10T18:29:09.334Z,2.20
2022-09-10T18:31:38.781Z,2.20
2022-09-10T18:34:07.772Z,3.08
2022-09-10T18:36:34.756Z,2.30
2022-09-10T18:39:12.943Z,2.20
2022-09-10T18:41:45.460Z,2.08
2022-09-10T18:44:18.645Z,2.05
2022-09-10T18:46:46.860Z,2.05
2022-09-10T18:49:19.107Z,2.05
2022-09-10T18:51:47.883Z,2.10
2022-09-10T18:54:16.555Z,2.15
2022-09-10T18:56:44.951Z,2.20
2022-09-10T18:59:15.250Z,2.53
2022-09-10T19:01:43.640Z,2.83
2022-09-10T19:04:12.870Z,2.72
2022-09-10T19:06:42.306Z,2.80
2022-09-10T19:09:12.083Z,2.38
2022-09-10T19:11:41.468Z,3.00
2022-09-10T19:14:21.310Z,2.47
2022-09-10T19:16:50.036Z,2.83
2022-09-10T19:19:20.005Z,2.72
2022-09-10T19:21:55.990Z,2.50
2022-09-10T19:24:44.143Z,2.60
2022-09-10T19:27:13.220Z,3.00
2022-09-10T19:29:41.986Z,2.80
2022-09-10T19:32:11.149Z,2.80
2022-09-10T19:34:37.883Z,2.55
2022-09-10T19:37:04.636Z,3.10
2022-09-10T19:39:31.288Z,2.30
2022-09-10T19:41:57.960Z,2.60
2022-09-10T19:44:24.580Z,2.75
2022-09-10T19:46:51.235Z,2.45
2022-09-10T19:49:18.409Z,2.55
2022-09-10T19:51:45.158Z,2.30
2022-09-10T19:54:11.987Z,2.50
2022-09-10T19:56:41.205Z,2.25
2022-09-10T19:59:09.921Z,2.50
2022-09-10T20:01:40.046Z,2.20
2022-09-10T20:04:09.442Z,2.58
2022-09-10T20:06:36.888Z,2.42
2022-09-10T20:09:05.834Z,2.90
2022-09-10T20:11:35.006Z,2.83
2022-09-10T20:14:13.611Z,2.58
2022-09-10T20:16:43.266Z,2.60
2022-09-10T20:19:18.280Z,2.50
2022-09-10T20:21:46.434Z,3.22
2022-09-10T20:24:13.271Z,2.40
2022-09-10T20:26:41.647Z,2.70
2022-09-10T20:29:12.465Z,2.80
2022-09-10T20:31:41.150Z,2.40
2022-09-10T20:34:11.264Z,2.10
2022-09-10T20:36:38.131Z,2.45
2022-09-10T20:39:06.661Z,3.25
2022-09-10T20:41:33.967Z,3.00
2022-09-10T20:44:01.313Z,3.00
2022-09-10T20:46:30.407Z,2.85
2022-09-10T20:49:04.683Z,3.25
2022-09-10T20:51:34.323Z,3.83
2022-09-10T20:54:01.927Z,3.20
2022-09-10T20:56:29.373Z,3.42
2022-09-10T20:58:56.779Z,3.33
2022-09-10T21:01:25.705Z,3.42
2022-09-10T21:03:54.237Z,4.35
2022-09-10T21:06:23.901Z,3.50
2022-09-10T21:08:50.613Z,3.95
2022-09-10T21:11:20.030Z,3.60
2022-09-10T21:13:52.850Z,4.78
2022-09-10T21:16:27.953Z,4.53
2022-09-10T21:19:00.717Z,4.10
2022-09-10T21:21:29.559Z,3.53
2022-09-10T21:23:58.887Z,3.28
2022-09-10T21:26:28.250Z,3.40
2022-09-10T21:28:58.014Z,3.67
2022-09-10T21:31:27.254Z,3.28
2022-09-10T21:33:59.507Z,3.42
2022-09-10T21:36:29.769Z,2.90
2022-09-10T21:38:59.457Z,2.83
2022-09-10T21:41:33.713Z,3.22
2022-09-10T21:44:02.921Z,3.13
2022-09-10T21:46:30.546Z,2.95
2022-09-10T21:48:57.527Z,3.15
2022-09-10T21:51:24.440Z,3.00
2022-09-10T21:53:56.201Z,3.17
2022-09-10T21:56:25.835Z,3.03
2022-09-10T21:58:53.667Z,3.17
2022-09-10T22:01:22.365Z,3.00
2022-09-10T22:03:49.954Z,3.60
2022-09-10T22:06:24.409Z,4.32
2022-09-10T22:08:53.729Z,3.10
2022-09-10T22:11:24.220Z,4.20
2022-09-10T22:13:56.383Z,4.65
2022-09-10T22:16:23.211Z,4.88
2022-09-10T22:18:50.401Z,5.07
2022-09-10T22:21:17.546Z,4.88
2022-09-10T22:23:44.634Z,5.07
2022-09-10T22:26:16.845Z,5.32
2022-09-10T22:28:44.510Z,5.32
2022-09-10T22:31:12.959Z,5.07
2022-09-10T22:33:41.400Z,4.68
2022-09-10T22:36:35.807Z,4.68
2022-09-10T22:39:03.913Z,5.68
2022-09-10T22:41:34.021Z,5.20
2022-09-10T22:44:01.557Z,5.25
2022-09-10T22:46:29.317Z,4.55
2022-09-10T22:48:56.540Z,5.20
2022-09-10T22:51:28.941Z,5.30
2022-09-10T22:53:56.990Z,6.47
2022-09-10T22:56:26.193Z,9.70
2022-09-10T22:58:55.516Z,12.20
2022-09-10T23:01:25.279Z,13.88
2022-09-10T23:03:52.842Z,10.90
2022-09-10T23:06:21.697Z,8.10
2022-09-10T23:08:53.710Z,5.97
2022-09-10T23:11:29.223Z,5.40
2022-09-10T23:13:58.876Z,5.13
2022-09-10T23:16:37.228Z,5.55
2022-09-10T23:19:09.704Z,4.55
2022-09-10T23:21:39.355Z,4.68
2022-09-10T23:24:07.990Z,4.53
2022-09-10T23:26:34.913Z,4.75
2022-09-10T23:29:04.311Z,5.55
2022-09-10T23:31:33.220Z,5.35
2022-09-10T23:34:06.273Z,5.38
2022-09-10T23:36:35.272Z,5.43
2022-09-10T23:39:04.920Z,4.50
2022-09-10T23:41:31.670Z,4.13
2022-09-10T23:43:58.573Z,4.43
2022-09-10T23:46:25.869Z,3.97
2022-09-10T23:48:52.677Z,4.53
2022-09-10T23:51:20.845Z,3.58
2022-09-10T23:53:48.152Z,4.25
2022-09-10T23:56:19.686Z,4.05
2022-09-10T23:58:47.610Z,4.03
